Time;durP1;ratioP1;P1;durP2;ratioP2;P2;SDS_P1;SDS_P2;PMS_P1;PMS_P2;Temp;Humidity;BMP_temperature;BMP_pressure;BME280_temperature;BME280_humidity;BME280_pressure;Samples;Min_cycle;Max_cycle;Signal;HPM_P1;HPM_P2
2023/12/20 00:01:04;;;;;;;27.10;13.65;;;;;;;;;;10402430;28;20057;-74
2023/12/20 00:06:04;;;;;;;25.13;13.15;;;;;;;;;;10384100;28;20523;-73
2023/12/20 00:11:04;;;;;;;26.90;12.70;;;;;;;;;;10401832;28;20935;-74
2023/12/20 00:16:05;;;;;;;21.02;12.20;;;;;;;;;;10400325;28;20132;-78
2023/12/20 00:21:05;;;;;;;23.50;12.27;;;;;;;;;;10382825;28;20087;-74
2023/12/20 00:26:05;;;;;;;26.88;14.02;;;;;;;;;;10400736;28;20091;-81
2023/12/20 00:31:05;;;;;;;27.58;14.65;;;;;;;;;;10401236;28;20037;-77
2023/12/20 00:36:06;;;;;;;35.80;17.30;;;;;;;;;;10383173;28;20510;-74
2023/12/20 00:41:06;;;;;;;33.05;17.50;;;;;;;;;;10399695;28;20054;-75
2023/12/20 00:46:06;;;;;;;30.92;15.70;;;;;;;;;;10400826;28;20541;-75
2023/12/20 00:51:06;;;;;;;30.27;16.20;;;;;;;;;;10382933;28;20667;-75
2023/12/20 00:56:07;;;;;;;22.25;12.48;;;;;;;;;;10407261;28;20031;-74
2023/12/20 01:01:07;;;;;;;19.05;9.00;;;;;;;;;;10408186;28;20195;-77
2023/12/20 01:06:07;;;;;;;17.42;9.50;;;;;;;;;;10404007;28;20025;-74
2023/12/20 01:11:07;;;;;;;21.98;9.45;;;;;;;;;;10395442;28;20025;-74
2023/12/20 01:16:10;;;;;;;12.05;7.88;;;;;;;;;;10403730;28;20478;-74
2023/12/20 01:21:10;;;;;;;17.00;9.38;;;;;;;;;;10403672;28;20080;-79
2023/12/20 01:26:11;;;;;;;15.25;7.72;;;;;;;;;;10400530;28;20564;-74
2023/12/20 01:31:11;;;;;;;12.38;7.45;;;;;;;;;;10395212;28;20021;-79
2023/12/20 01:36:12;;;;;;;13.45;8.02;;;;;;;;;;10403317;28;20028;-77
2023/12/20 01:41:12;;;;;;;19.10;8.57;;;;;;;;;;10385097;28;20522;-74
2023/12/20 01:46:12;;;;;;;17.10;9.13;;;;;;;;;;10369464;28;20026;-73
2023/12/20 01:51:13;;;;;;;13.63;7.53;;;;;;;;;;10363646;28;20021;-81
2023/12/20 01:56:14;;;;;;;18.35;8.13;;;;;;;;;;10404683;28;20057;-77
2023/12/20 02:01:14;;;;;;;15.48;8.20;;;;;;;;;;10402798;28;20068;-74
2023/12/20 02:06:15;;;;;;;18.33;8.90;;;;;;;;;;10402523;28;20023;-73
2023/12/20 02:11:16;;;;;;;17.95;9.90;;;;;;;;;;10400400;28;20033;-75
2023/12/20 02:16:16;;;;;;;15.68;8.70;;;;;;;;;;10400096;28;20049;-78
2023/12/20 02:21:16;;;;;;;14.27;8.20;;;;;;;;;;10402233;28;20021;-78
2023/12/20 02:26:18;;;;;;;15.82;7.85;;;;;;;;;;10403287;28;20083;-75
2023/12/20 02:31:21;;;;;;;13.60;6.57;;;;;;;;;;10403085;28;20092;-73
2023/12/20 02:36:21;;;;;;;18.45;8.23;;;;;;;;;;10401055;28;20087;-75
2023/12/20 02:41:21;;;;;;;12.73;7.32;;;;;;;;;;10401116;28;20131;-74
2023/12/20 02:46:22;;;;;;;15.85;8.35;;;;;;;;;;10400881;28;20392;-73
2023/12/20 02:51:23;;;;;;;18.40;9.57;;;;;;;;;;10384639;28;20048;-74
2023/12/20 02:56:23;;;;;;;21.27;9.48;;;;;;;;;;10383915;28;20083;-79
2023/12/20 03:01:23;;;;;;;18.55;9.57;;;;;;;;;;10400537;28;20045;-75
2023/12/20 03:06:24;;;;;;;21.50;10.73;;;;;;;;;;10400594;28;20026;-74
2023/12/20 03:11:28;;;;;;;22.95;11.38;;;;;;;;;;10400704;28;20037;-81
2023/12/20 03:16:28;;;;;;;28.02;14.70;;;;;;;;;;10400183;28;20028;-74
2023/12/20 03:21:28;;;;;;;34.05;17.20;;;;;;;;;;10399848;28;20049;-76
2023/12/20 03:26:29;;;;;;;63.78;29.52;;;;;;;;;;10399595;28;20057;-78
2023/12/20 03:31:29;;;;;;;56.40;29.38;;;;;;;;;;10382904;28;20052;-75
2023/12/20 03:36:29;;;;;;;59.47;28.67;;;;;;;;;;10400019;28;20056;-77
2023/12/20 03:41:29;;;;;;;82.30;40.28;;;;;;;;;;10398427;28;20284;-75
2023/12/20 03:46:30;;;;;;;68.85;35.88;;;;;;;;;;10401200;28;20021;-74
2023/12/20 03:51:30;;;;;;;63.42;36.88;;;;;;;;;;10383431;28;20021;-74
2023/12/20 03:56:30;;;;;;;68.57;35.13;;;;;;;;;;10399943;28;20056;-78
2023/12/20 04:01:30;;;;;;;42.75;26.33;;;;;;;;;;10393434;28;20508;-77
2023/12/20 04:06:30;;;;;;;26.85;15.45;;;;;;;;;;10398673;28;20025;-74
2023/12/20 04:11:31;;;;;;;47.00;25.75;;;;;;;;;;10380743;28;20025;-74
2023/12/20 04:16:31;;;;;;;38.92;20.98;;;;;;;;;;10399649;28;20029;-73
2023/12/20 04:21:31;;;;;;;51.70;24.27;;;;;;;;;;10399061;28;20025;-73
2023/12/20 04:26:31;;;;;;;51.70;43.22;;;;;;;;;;10398753;28;20021;-73
2023/12/20 04:31:31;;;;;;;28.50;14.63;;;;;;;;;;10381034;28;20076;-74
2023/12/20 04:36:32;;;;;;;41.78;20.58;;;;;;;;;;10397387;28;20033;-72
2023/12/20 04:41:32;;;;;;;25.48;14.00;;;;;;;;;;10397160;28;20446;-74
2023/12/20 04:46:32;;;;;;;22.98;10.88;;;;;;;;;;10398482;28;20112;-73
2023/12/20 04:51:33;;;;;;;19.23;10.90;;;;;;;;;;10397585;28;20038;-74
2023/12/20 04:56:34;;;;;;;16.70;7.72;;;;;;;;;;10397835;28;20276;-74
2023/12/20 05:01:34;;;;;;;16.15;8.50;;;;;;;;;;10395807;28;20198;-73
2023/12/20 05:06:34;;;;;;;30.48;16.92;;;;;;;;;;10392873;28;20106;-73
2023/12/20 05:11:34;;;;;;;34.03;19.63;;;;;;;;;;10394588;28;20079;-74
2023/12/20 05:16:34;;;;;;;40.65;24.00;;;;;;;;;;10398046;28;20071;-82
2023/12/20 05:21:35;;;;;;;60.92;31.73;;;;;;;;;;10399346;28;20707;-78
2023/12/20 05:26:36;;;;;;;60.22;29.67;;;;;;;;;;10393550;28;20017;-74
2023/12/20 05:31:36;;;;;;;72.63;34.67;;;;;;;;;;10378036;28;20515;-76
2023/12/20 05:36:36;;;;;;;75.55;35.38;;;;;;;;;;10379074;28;20029;-74
2023/12/20 05:41:36;;;;;;;78.90;29.67;;;;;;;;;;10405528;28;20106;-81
2023/12/20 05:46:37;;;;;;;75.35;28.98;;;;;;;;;;10383479;28;20422;-75
2023/12/20 05:51:37;;;;;;;85.18;32.05;;;;;;;;;;10407329;28;20564;-76
2023/12/20 05:56:37;;;;;;;64.57;29.33;;;;;;;;;;10410403;28;20025;-79
2023/12/20 06:01:37;;;;;;;75.33;28.33;;;;;;;;;;10406323;28;20103;-82
2023/12/20 06:06:42;;;;;;;67.00;28.67;;;;;;;;;;10422376;28;20083;-77
2023/12/20 06:11:42;;;;;;;63.72;25.23;;;;;;;;;;10386465;28;20036;-75
2023/12/20 06:16:42;;;;;;;61.25;28.25;;;;;;;;;;10402253;28;20025;-75
2023/12/20 06:21:43;;;;;;;55.63;28.60;;;;;;;;;;10402023;28;20033;-78
2023/12/20 06:26:43;;;;;;;52.28;24.98;;;;;;;;;;10402144;28;20033;-77
2023/12/20 06:31:43;;;;;;;52.65;25.73;;;;;;;;;;10402163;28;20103;-75
2023/12/20 06:36:43;;;;;;;63.20;24.13;;;;;;;;;;10401438;28;20424;-76
2023/12/20 06:41:43;;;;;;;50.65;22.70;;;;;;;;;;10405728;28;20083;-75
2023/12/20 06:46:44;;;;;;;61.17;26.33;;;;;;;;;;10404247;28;20027;-74
2023/12/20 06:51:44;;;;;;;53.38;23.75;;;;;;;;;;10404915;28;20025;-73
2023/12/20 06:56:44;;;;;;;66.72;30.42;;;;;;;;;;10384842;28;20408;-76
2023/12/20 07:01:47;;;;;;;63.22;29.95;;;;;;;;;;10397591;28;20053;-77
2023/12/20 07:06:57;;;;;;;65.07;27.38;;;;;;;;;;10387211;28;20044;-80
2023/12/20 07:11:57;;;;;;;74.70;35.97;;;;;;;;;;10386458;28;20504;-80
2023/12/20 07:16:57;;;;;;;54.35;28.10;;;;;;;;;;10387184;28;20036;-75
2023/12/20 07:21:57;;;;;;;54.90;24.88;;;;;;;;;;10402241;28;20480;-75
2023/12/20 07:26:59;;;;;;;47.55;24.20;;;;;;;;;;10402117;28;20145;-75
2023/12/20 07:31:59;;;;;;;36.95;18.67;;;;;;;;;;10402205;28;20040;-75
2023/12/20 07:36:59;;;;;;;46.95;24.17;;;;;;;;;;10385906;28;20025;-76
2023/12/20 07:42:00;;;;;;;58.78;27.45;;;;;;;;;;10385832;28;20117;-76
2023/12/20 07:47:01;;;;;;;160.35;111.32;;;;;;;;;;10401763;28;20025;-81
2023/12/20 07:52:01;;;;;;;76.50;50.53;;;;;;;;;;10401360;28;20858;-75
2023/12/20 07:57:02;;;;;;;479.60;238.40;;;;;;;;;;10401217;28;20025;-80
2023/12/20 08:02:02;;;;;;;61.88;23.65;;;;;;;;;;10401307;28;20049;-73
2023/12/20 08:07:03;;;;;;;60.45;25.50;;;;;;;;;;10401470;28;20025;-74
2023/12/20 08:12:04;;;;;;;58.58;27.83;;;;;;;;;;10396734;28;20025;-76
2023/12/20 08:17:05;;;;;;;79.15;28.60;;;;;;;;;;10381458;28;20022;-80
2023/12/20 08:22:05;;;;;;;76.65;30.52;;;;;;;;;;10390455;28;20026;-78
2023/12/20 08:27:05;;;;;;;92.00;34.88;;;;;;;;;;10368104;28;20033;-77
2023/12/20 08:32:06;;;;;;;92.68;38.00;;;;;;;;;;10400210;28;20065;-76
2023/12/20 08:37:06;;;;;;;97.47;37.70;;;;;;;;;;10400867;28;20030;-77
2023/12/20 08:42:06;;;;;;;77.70;33.08;;;;;;;;;;10421738;28;20120;-75
2023/12/20 08:47:07;;;;;;;86.97;36.03;;;;;;;;;;10419124;28;20033;-77
2023/12/20 08:52:07;;;;;;;71.72;34.13;;;;;;;;;;10411568;28;20029;-79
2023/12/20 08:57:07;;;;;;;78.30;34.97;;;;;;;;;;10400521;28;20029;-77
2023/12/20 09:02:08;;;;;;;74.17;35.67;;;;;;;;;;10399662;28;20045;-75
2023/12/20 09:07:21;;;;;;;84.43;32.75;;;;;;;;;;10401082;28;20022;-79
2023/12/20 09:12:21;;;;;;;82.30;32.22;;;;;;;;;;10401175;28;20064;-76
2023/12/20 09:17:22;;;;;;;76.32;33.08;;;;;;;;;;10390638;28;20117;-77
2023/12/20 09:22:23;;;;;;;82.90;33.83;;;;;;;;;;10407975;28;20496;-76
2023/12/20 09:27:23;;;;;;;85.60;38.63;;;;;;;;;;10403560;28;20026;-82
2023/12/20 09:32:23;;;;;;;83.80;34.30;;;;;;;;;;10404527;28;20279;-76
2023/12/20 09:37:27;;;;;;;83.72;34.92;;;;;;;;;;10403634;28;20040;-77
2023/12/20 09:42:49;;;;;;;83.53;34.22;;;;;;;;;;10404339;28;20025;-75
2023/12/20 09:47:53;;;;;;;88.35;36.45;;;;;;;;;;10386573;28;20083;-75
2023/12/20 09:52:56;;;;;;;87.72;33.63;;;;;;;;;;10402745;28;20026;-79
2023/12/20 09:57:56;;;;;;;102.68;39.05;;;;;;;;;;10388985;28;20026;-75
2023/12/20 10:02:58;;;;;;;84.97;33.67;;;;;;;;;;10405571;28;20045;-77
2023/12/20 10:07:59;;;;;;;76.38;33.05;;;;;;;;;;10395697;28;20021;-79
2023/12/20 10:13:03;;;;;;;81.70;35.05;;;;;;;;;;10387939;28;20018;-83
2023/12/20 10:18:04;;;;;;;77.75;32.83;;;;;;;;;;10389107;28;20049;-80
2023/12/20 10:23:04;;;;;;;84.93;33.75;;;;;;;;;;10404140;28;20137;-76
2023/12/20 10:28:17;;;;;;;72.93;32.55;;;;;;;;;;10409133;28;20045;-76
2023/12/20 10:33:35;;;;;;;72.38;30.55;;;;;;;;;;10388307;28;20043;-83
2023/12/20 10:38:37;;;;;;;67.50;30.25;;;;;;;;;;10384875;28;20025;-84
2023/12/20 10:43:38;;;;;;;71.07;31.08;;;;;;;;;;10388165;28;20022;-79
2023/12/20 10:48:39;;;;;;;64.63;29.05;;;;;;;;;;10405846;28;20096;-77
2023/12/20 10:53:40;;;;;;;97.55;83.82;;;;;;;;;;10387124;28;20026;-78
2023/12/20 10:58:42;;;;;;;921.83;833.05;;;;;;;;;;10403529;28;20035;-77
2023/12/20 11:03:52;;;;;;;879.40;766.65;;;;;;;;;;10406372;28;20078;-76
2023/12/20 11:09:14;;;;;;;807.20;599.47;;;;;;;;;;10407212;28;20029;-76
2023/12/20 11:14:17;;;;;;;797.45;486.10;;;;;;;;;;10404836;28;20056;-75
2023/12/20 11:19:17;;;;;;;745.33;389.83;;;;;;;;;;10386271;28;20029;-78
2023/12/20 11:24:21;;;;;;;98.32;78.97;;;;;;;;;;10405792;28;20400;-79
2023/12/20 11:29:35;;;;;;;552.95;509.52;;;;;;;;;;10400471;28;20484;-79
2023/12/20 11:34:35;;;;;;;510.58;472.50;;;;;;;;;;10398752;28;20112;-78
2023/12/20 11:39:36;;;;;;;853.40;755.42;;;;;;;;;;10402489;28;20021;-76
2023/12/20 11:44:36;;;;;;;881.85;789.20;;;;;;;;;;10385755;28;20488;-76
2023/12/20 11:49:37;;;;;;;522.25;468.25;;;;;;;;;;10401543;28;20075;-77
2023/12/20 11:54:37;;;;;;;858.67;763.72;;;;;;;;;;10399736;28;20047;-81
2023/12/20 11:59:37;;;;;;;830.17;738.45;;;;;;;;;;10401904;28;20332;-75
2023/12/20 12:04:37;;;;;;;850.90;704.70;;;;;;;;;;10359579;28;20500;-76
2023/12/20 12:09:38;;;;;;;766.42;644.70;;;;;;;;;;10341942;28;20030;-78
2023/12/20 12:14:38;;;;;;;829.75;625.40;;;;;;;;;;10319698;28;20026;-75
2023/12/20 12:19:42;;;;;;;796.85;597.92;;;;;;;;;;10361503;28;20037;-77
2023/12/20 12:24:43;;;;;;;800.10;568.47;;;;;;;;;;10344911;28;20042;-73
2023/12/20 12:30:00;;;;;;;774.92;526.67;;;;;;;;;;10344601;28;20021;-74
2023/12/20 12:35:02;;;;;;;813.60;527.83;;;;;;;;;;10308977;28;20026;-75
2023/12/20 12:40:05;;;;;;;817.90;566.58;;;;;;;;;;10319087;28;20037;-79
2023/12/20 12:45:06;;;;;;;801.03;516.28;;;;;;;;;;10333657;28;20022;-76
2023/12/20 12:50:06;;;;;;;802.10;511.23;;;;;;;;;;10323358;28;20085;-78
2023/12/20 12:55:06;;;;;;;683.33;455.13;;;;;;;;;;10356174;28;20512;-76
2023/12/20 13:00:09;;;;;;;757.95;423.00;;;;;;;;;;10326831;28;20032;-75
2023/12/20 13:05:09;;;;;;;766.60;437.55;;;;;;;;;;10421538;28;20072;-79
2023/12/20 13:10:10;;;;;;;740.38;375.35;;;;;;;;;;10416452;28;20554;-76
2023/12/20 13:15:10;;;;;;;696.47;401.20;;;;;;;;;;10415966;28;20079;-76
2023/12/20 13:20:11;;;;;;;753.63;409.38;;;;;;;;;;10390000;28;20128;-77
2023/12/20 13:25:11;;;;;;;763.17;423.50;;;;;;;;;;10407735;28;20018;-77
2023/12/20 13:30:11;;;;;;;737.58;446.02;;;;;;;;;;10401324;28;20025;-78
2023/12/20 13:35:12;;;;;;;605.15;406.35;;;;;;;;;;10417585;28;20025;-80
2023/12/20 13:40:12;;;;;;;776.47;463.90;;;;;;;;;;10391144;28;20048;-76
2023/12/20 13:45:12;;;;;;;765.27;424.87;;;;;;;;;;10417005;28;20037;-76
2023/12/20 13:50:13;;;;;;;761.10;439.55;;;;;;;;;;10406467;28;20252;-76
2023/12/20 13:55:13;;;;;;;790.58;462.70;;;;;;;;;;10405983;28;20116;-76
2023/12/20 14:00:14;;;;;;;776.97;441.50;;;;;;;;;;10400800;28;20029;-77
2023/12/20 14:05:17;;;;;;;767.78;438.38;;;;;;;;;;10383627;28;20297;-77
2023/12/20 14:10:17;;;;;;;782.90;472.73;;;;;;;;;;10406139;28;20033;-78
2023/12/20 14:15:17;;;;;;;791.08;483.23;;;;;;;;;;10389039;28;20495;-78
2023/12/20 14:20:18;;;;;;;786.00;472.15;;;;;;;;;;10405223;28;20506;-78
2023/12/20 14:25:18;;;;;;;773.95;447.70;;;;;;;;;;10386545;28;20027;-76
2023/12/20 14:30:18;;;;;;;775.50;441.75;;;;;;;;;;10404860;28;20021;-74
2023/12/20 14:35:19;;;;;;;795.65;498.10;;;;;;;;;;10405638;28;20035;-75
2023/12/20 14:40:19;;;;;;;796.30;488.20;;;;;;;;;;10355249;28;20026;-76
2023/12/20 14:45:20;;;;;;;803.30;495.87;;;;;;;;;;10361249;28;20032;-76
2023/12/20 14:50:21;;;;;;;592.53;449.40;;;;;;;;;;10365481;28;20036;-77
2023/12/20 14:55:21;;;;;;;796.50;490.38;;;;;;;;;;10401227;28;20033;-75
2023/12/20 15:00:22;;;;;;;772.95;460.65;;;;;;;;;;10412046;28;20037;-75
2023/12/20 15:05:22;;;;;;;791.88;457.73;;;;;;;;;;10410250;28;20053;-75
2023/12/20 15:10:22;;;;;;;763.90;445.30;;;;;;;;;;10386525;28;20522;-75
2023/12/20 15:15:24;;;;;;;773.63;452.30;;;;;;;;;;10394057;28;20018;-75
2023/12/20 15:20:24;;;;;;;785.83;431.23;;;;;;;;;;10402400;28;20487;-75
2023/12/20 15:25:24;;;;;;;772.50;418.95;;;;;;;;;;10397771;28;20367;-76
2023/12/20 15:30:24;;;;;;;781.50;436.20;;;;;;;;;;10385032;28;20018;-79
2023/12/20 15:35:25;;;;;;;783.90;440.95;;;;;;;;;;10386077;28;20025;-76
2023/12/20 15:40:25;;;;;;;778.60;465.00;;;;;;;;;;10384548;28;20580;-77
2023/12/20 15:45:25;;;;;;;789.53;471.00;;;;;;;;;;10404765;28;20071;-78
2023/12/20 15:50:28;;;;;;;642.38;435.77;;;;;;;;;;10409343;28;20049;-72
2023/12/20 15:55:28;;;;;;;773.30;439.15;;;;;;;;;;10410939;28;20448;-76
2023/12/20 16:00:30;;;;;;;792.78;445.80;;;;;;;;;;10401164;28;20159;-76
2023/12/20 16:05:31;;;;;;;610.50;410.65;;;;;;;;;;10401403;28;20042;-76
2023/12/20 16:10:31;;;;;;;692.38;409.75;;;;;;;;;;10399759;28;20024;-74
2023/12/20 16:15:33;;;;;;;754.58;430.65;;;;;;;;;;10401039;28;20026;-74
2023/12/20 16:20:33;;;;;;;679.97;397.98;;;;;;;;;;10384267;28;20603;-75
2023/12/20 16:25:37;;;;;;;698.75;430.90;;;;;;;;;;10382370;28;20025;-76
2023/12/20 16:30:37;;;;;;;769.80;445.83;;;;;;;;;;10399361;28;20014;-80
2023/12/20 16:35:37;;;;;;;778.03;455.90;;;;;;;;;;10399619;28;20021;-76
2023/12/20 16:40:38;;;;;;;620.30;425.48;;;;;;;;;;10399213;28;20014;-76
2023/12/20 16:45:38;;;;;;;520.47;368.15;;;;;;;;;;10382823;28;20125;-79
2023/12/20 16:50:39;;;;;;;769.95;455.13;;;;;;;;;;10400544;28;20026;-80
2023/12/20 16:55:40;;;;;;;780.00;425.98;;;;;;;;;;10400412;28;20435;-77
2023/12/20 17:00:41;;;;;;;766.03;435.20;;;;;;;;;;10399140;28;20029;-75
2023/12/20 17:05:41;;;;;;;748.93;419.10;;;;;;;;;;10400004;28;20025;-75
2023/12/20 17:10:41;;;;;;;770.50;418.00;;;;;;;;;;10387911;28;20022;-76
2023/12/20 17:15:42;;;;;;;770.43;416.07;;;;;;;;;;10369926;28;20049;-75
2023/12/20 17:20:42;;;;;;;769.10;470.00;;;;;;;;;;10372999;28;20264;-75
2023/12/20 17:25:42;;;;;;;768.90;428.58;;;;;;;;;;10355184;28;20010;-73
2023/12/20 17:30:43;;;;;;;760.17;432.60;;;;;;;;;;10370583;28;20480;-78
2023/12/20 17:35:44;;;;;;;767.27;456.37;;;;;;;;;;10372742;28;20257;-74
2023/12/20 17:40:44;;;;;;;753.72;430.75;;;;;;;;;;10392762;28;20268;-76
2023/12/20 17:45:45;;;;;;;753.78;464.63;;;;;;;;;;10371795;28;20040;-76
2023/12/20 17:50:45;;;;;;;770.95;493.45;;;;;;;;;;10389274;28;20376;-74
2023/12/20 17:55:45;;;;;;;795.05;455.98;;;;;;;;;;10366486;28;20071;-77
2023/12/20 18:00:45;;;;;;;778.47;445.77;;;;;;;;;;10361232;28;20037;-77
2023/12/20 18:05:46;;;;;;;765.20;439.08;;;;;;;;;;10383946;28;20378;-76
2023/12/20 18:10:46;;;;;;;766.33;419.00;;;;;;;;;;10387553;28;20041;-76
2023/12/20 18:15:46;;;;;;;729.47;402.98;;;;;;;;;;10366350;28;20032;-76
2023/12/20 18:20:47;;;;;;;726.33;437.88;;;;;;;;;;10372717;28;20028;-77
2023/12/20 18:25:47;;;;;;;752.10;428.38;;;;;;;;;;10392038;28;20096;-75
2023/12/20 18:30:47;;;;;;;684.42;364.73;;;;;;;;;;10385371;28;20052;-75
2023/12/20 18:35:47;;;;;;;715.08;354.02;;;;;;;;;;10377574;28;20050;-75
2023/12/20 18:40:47;;;;;;;738.67;353.58;;;;;;;;;;10372114;28;20024;-75
2023/12/20 18:45:48;;;;;;;743.72;379.38;;;;;;;;;;10385560;28;20033;-75
2023/12/20 18:50:48;;;;;;;743.92;377.23;;;;;;;;;;10363786;28;20017;-72
2023/12/20 18:55:48;;;;;;;721.53;356.58;;;;;;;;;;10368120;28;20110;-73
2023/12/20 19:00:48;;;;;;;667.03;315.83;;;;;;;;;;10362498;28;20022;-75
2023/12/20 19:05:50;;;;;;;690.20;380.33;;;;;;;;;;10369150;28;20451;-74
2023/12/20 19:10:55;;;;;;;693.33;381.50;;;;;;;;;;10372477;28;20017;-76
2023/12/20 19:15:55;;;;;;;650.30;332.13;;;;;;;;;;10371552;28;20021;-74
2023/12/20 19:20:55;;;;;;;719.05;373.25;;;;;;;;;;10384836;28;20025;-74
2023/12/20 19:25:56;;;;;;;724.53;361.83;;;;;;;;;;10367235;28;20115;-75
2023/12/20 19:30:58;;;;;;;634.20;348.52;;;;;;;;;;10370160;28;20021;-76
2023/12/20 19:35:58;;;;;;;634.83;351.02;;;;;;;;;;10367634;28;20021;-76
2023/12/20 19:40:58;;;;;;;636.03;387.10;;;;;;;;;;10372344;28;20013;-75
2023/12/20 19:45:58;;;;;;;626.72;371.98;;;;;;;;;;10367407;28;20103;-76
2023/12/20 19:50:59;;;;;;;397.35;274.08;;;;;;;;;;10380534;28;20731;-74
2023/12/20 19:56:01;;;;;;;578.00;375.95;;;;;;;;;;10382425;28;20079;-75
2023/12/20 20:01:01;;;;;;;276.58;150.75;;;;;;;;;;10373684;28;20048;-76
2023/12/20 20:06:01;;;;;;;529.97;365.25;;;;;;;;;;10379900;28;20029;-74
2023/12/20 20:11:02;;;;;;;542.65;360.15;;;;;;;;;;10373729;28;20155;-73
2023/12/20 20:16:02;;;;;;;586.22;398.80;;;;;;;;;;10358335;28;20021;-72
2023/12/20 20:21:03;;;;;;;143.13;59.65;;;;;;;;;;10366435;28;20018;-75
2023/12/20 20:26:03;;;;;;;159.70;58.67;;;;;;;;;;10358154;28;20551;-77
2023/12/20 20:31:03;;;;;;;151.25;59.30;;;;;;;;;;10362270;28;20491;-75
2023/12/20 20:36:06;;;;;;;226.57;69.47;;;;;;;;;;10379163;28;20029;-74
2023/12/20 20:41:07;;;;;;;203.02;74.93;;;;;;;;;;10374029;28;20773;-75
2023/12/20 20:46:07;;;;;;;187.50;70.60;;;;;;;;;;10365445;28;20032;-75
2023/12/20 20:51:07;;;;;;;189.07;66.77;;;;;;;;;;10366273;28;20556;-78
2023/12/20 20:56:09;;;;;;;167.38;70.53;;;;;;;;;;10382688;28;20404;-77
2023/12/20 21:01:09;;;;;;;176.88;70.22;;;;;;;;;;10365939;28;20176;-73
2023/12/20 21:06:10;;;;;;;189.80;72.20;;;;;;;;;;10382625;28;20036;-75
2023/12/20 21:11:10;;;;;;;199.50;73.85;;;;;;;;;;10383749;28;20116;-76
2023/12/20 21:16:11;;;;;;;174.90;68.90;;;;;;;;;;10377817;28;20507;-76
2023/12/20 21:21:11;;;;;;;171.98;72.30;;;;;;;;;;10364317;28;20028;-76
2023/12/20 21:26:12;;;;;;;166.65;67.25;;;;;;;;;;10369143;28;20562;-76
2023/12/20 21:31:12;;;;;;;213.87;73.83;;;;;;;;;;10372735;28;20018;-74
2023/12/20 21:36:16;;;;;;;254.27;77.07;;;;;;;;;;10376416;28;20396;-76
2023/12/20 21:41:16;;;;;;;288.13;69.78;;;;;;;;;;10391703;28;20316;-76
2023/12/20 21:46:17;;;;;;;280.60;68.13;;;;;;;;;;10377846;28;20087;-79
2023/12/20 21:51:17;;;;;;;229.68;68.00;;;;;;;;;;10370100;28;20025;-76
2023/12/20 21:56:17;;;;;;;197.03;71.77;;;;;;;;;;10374865;28;20026;-75
2023/12/20 22:01:18;;;;;;;178.85;62.30;;;;;;;;;;10387561;28;20296;-75
2023/12/20 22:06:18;;;;;;;204.45;71.32;;;;;;;;;;10364658;28;20057;-75
2023/12/20 22:11:18;;;;;;;204.60;75.43;;;;;;;;;;10370661;28;20029;-74
2023/12/20 22:16:18;;;;;;;213.50;73.10;;;;;;;;;;10393614;28;20130;-76
2023/12/20 22:21:19;;;;;;;223.68;78.50;;;;;;;;;;10393485;28;20101;-76
2023/12/20 22:26:19;;;;;;;209.88;74.70;;;;;;;;;;10371819;28;20472;-75
2023/12/20 22:31:20;;;;;;;179.48;70.93;;;;;;;;;;10391777;28;20026;-77
2023/12/20 22:36:20;;;;;;;205.97;75.60;;;;;;;;;;10381344;28;20132;-75
2023/12/20 22:41:20;;;;;;;210.43;85.68;;;;;;;;;;10371890;28;20028;-75
2023/12/20 22:46:22;;;;;;;203.25;76.93;;;;;;;;;;10375881;28;20488;-76
2023/12/20 22:51:22;;;;;;;203.63;81.82;;;;;;;;;;10394604;28;20117;-74
2023/12/20 22:56:24;;;;;;;238.98;84.88;;;;;;;;;;10393016;28;20029;-73
2023/12/20 23:01:25;;;;;;;230.18;75.47;;;;;;;;;;10397595;28;20447;-74
2023/12/20 23:06:25;;;;;;;215.68;84.28;;;;;;;;;;10384060;28;20029;-74
2023/12/20 23:11:25;;;;;;;212.35;81.85;;;;;;;;;;10381346;28;20029;-78
2023/12/20 23:16:25;;;;;;;196.32;82.07;;;;;;;;;;10398410;28;20415;-74
2023/12/20 23:21:26;;;;;;;210.65;78.70;;;;;;;;;;10397817;28;20045;-74
2023/12/20 23:26:26;;;;;;;177.60;78.97;;;;;;;;;;10383601;28;20518;-74
2023/12/20 23:31:26;;;;;;;181.45;72.50;;;;;;;;;;10399263;28;20120;-73
2023/12/20 23:36:26;;;;;;;173.18;74.05;;;;;;;;;;10380247;28;20043;-73
2023/12/20 23:41:28;;;;;;;161.88;71.07;;;;;;;;;;10400464;28;20087;-74
2023/12/20 23:46:28;;;;;;;135.48;55.22;;;;;;;;;;10400988;28;20018;-75
2023/12/20 23:51:28;;;;;;;129.95;58.33;;;;;;;;;;10399701;28;20484;-74
2023/12/20 23:56:29;;;;;;;138.38;60.17;;;;;;;;;;10399616;28;20052;-72
